createdAt,value
2019-06-01T00:02:19.217Z,14.96
2019-06-01T00:04:49.555Z,14.86
2019-06-01T00:07:19.601Z,14.85
2019-06-01T00:09:49.677Z,14.79
2019-06-01T00:12:19.591Z,14.80
2019-06-01T00:14:50.017Z,14.76
2019-06-01T00:17:20.277Z,14.83
2019-06-01T00:19:50.387Z,14.80
2019-06-01T00:22:20.546Z,14.77
2019-06-01T00:24:50.662Z,14.77
2019-06-01T00:27:20.699Z,14.74
2019-06-01T00:29:50.381Z,14.74
2019-06-01T00:32:20.431Z,14.70
2019-06-01T00:34:50.210Z,14.63
2019-06-01T00:37:21.037Z,14.60
2019-06-01T00:39:52.004Z,14.56
2019-06-01T00:42:21.731Z,14.52
2019-06-01T00:44:52.512Z,14.54
2019-06-01T00:47:24.310Z,14.54
2019-06-01T00:49:54.665Z,14.55
2019-06-01T00:52:26.671Z,14.55
2019-06-01T00:54:56.547Z,14.41
2019-06-01T00:57:26.284Z,14.44
2019-06-01T00:59:56.059Z,14.44
2019-06-01T01:02:26.183Z,14.44
2019-06-01T01:05:10.496Z,14.31
2019-06-01T01:07:40.468Z,14.31
2019-06-01T01:10:10.385Z,14.34
2019-06-01T01:12:57.425Z,14.38
2019-06-01T01:15:27.423Z,14.38
2019-06-01T01:17:57.188Z,14.41
2019-06-01T01:20:27.051Z,14.44
2019-06-01T01:22:57.088Z,14.39
2019-06-01T01:25:27.178Z,14.39
2019-06-01T01:27:57.561Z,14.44
2019-06-01T01:30:27.725Z,14.32
2019-06-01T01:32:59.353Z,14.32
2019-06-01T01:35:29.246Z,14.32
2019-06-01T01:37:59.520Z,14.29
2019-06-01T01:40:29.985Z,14.25
2019-06-01T01:42:59.781Z,14.25
2019-06-01T01:45:31.127Z,14.31
2019-06-01T01:48:01.448Z,14.38
2019-06-01T01:50:31.856Z,14.38
2019-06-01T01:53:03.306Z,14.36
2019-06-01T01:55:33.272Z,14.36
2019-06-01T01:58:03.536Z,14.41
2019-06-01T02:00:40.678Z,14.41
2019-06-01T02:03:10.357Z,14.41
2019-06-01T02:05:40.186Z,14.47
2019-06-01T02:08:10.108Z,14.47
2019-06-01T02:10:39.957Z,14.46
2019-06-01T02:13:09.775Z,14.47
2019-06-01T02:15:40.696Z,14.48
2019-06-01T02:18:11.355Z,14.45
2019-06-01T02:20:42.704Z,14.45
2019-06-01T02:23:12.555Z,14.44
2019-06-01T02:25:42.568Z,14.44
2019-06-01T02:28:12.534Z,14.43
2019-06-01T02:30:42.501Z,14.38
2019-06-01T02:33:12.235Z,14.38
2019-06-01T02:35:41.982Z,14.44
2019-06-01T02:38:11.975Z,14.37
2019-06-01T02:40:41.579Z,14.40
2019-06-01T02:43:12.079Z,14.39
2019-06-01T02:45:42.306Z,14.34
2019-06-01T02:48:12.217Z,14.18
2019-06-01T02:50:42.595Z,14.18
2019-06-01T02:53:12.433Z,14.28
2019-06-01T02:55:42.803Z,14.24
2019-06-01T02:58:13.022Z,14.24
2019-06-01T03:01:14.047Z,14.31
2019-06-01T03:03:44.165Z,14.29
2019-06-01T03:06:14.377Z,14.29
2019-06-01T03:08:46.473Z,14.31
2019-06-01T03:11:16.627Z,14.23
2019-06-01T03:13:46.856Z,14.23
2019-06-01T03:16:16.702Z,14.29
2019-06-01T03:18:47.212Z,14.30
2019-06-01T03:21:19.009Z,14.33
2019-06-01T03:23:49.490Z,14.28
2019-06-01T03:26:19.336Z,14.28
2019-06-01T03:28:52.084Z,14.30
2019-06-01T03:31:22.430Z,14.29
2019-06-01T03:33:52.432Z,14.37
2019-06-01T03:36:22.926Z,14.36
2019-06-01T03:38:52.980Z,14.36
2019-06-01T03:41:23.039Z,14.40
2019-06-01T03:43:53.077Z,14.46
2019-06-01T03:46:23.382Z,14.50
2019-06-01T03:48:53.446Z,14.50
2019-06-01T03:51:23.787Z,14.52
2019-06-01T03:53:53.776Z,14.58
2019-06-01T03:56:23.824Z,14.56
2019-06-01T03:58:53.677Z,14.59
2019-06-01T04:01:23.756Z,14.63
2019-06-01T04:03:53.717Z,14.65
2019-06-01T04:06:24.363Z,14.78
2019-06-01T04:08:54.487Z,14.68
2019-06-01T04:11:24.672Z,14.79
2019-06-01T04:13:55.716Z,14.90
2019-06-01T04:16:25.874Z,14.90
2019-06-01T04:18:55.893Z,14.94
2019-06-01T04:21:26.156Z,15.13
2019-06-01T04:23:56.224Z,15.13
2019-06-01T04:26:26.105Z,15.19
2019-06-01T04:28:56.490Z,15.22
2019-06-01T04:31:26.482Z,15.22
2019-06-01T04:33:56.582Z,15.35
2019-06-01T04:36:26.700Z,15.35
2019-06-01T04:38:56.660Z,15.57
2019-06-01T04:41:26.635Z,15.66
2019-06-01T04:43:57.670Z,15.76
2019-06-01T04:46:27.872Z,15.88
2019-06-01T04:48:57.921Z,15.88
2019-06-01T04:51:28.054Z,15.88
2019-06-01T04:53:58.397Z,16.11
2019-06-01T04:56:28.285Z,16.05
2019-06-01T04:58:58.648Z,16.24
2019-06-01T05:01:28.435Z,16.24
2019-06-01T05:03:58.792Z,16.25
2019-06-01T05:06:28.805Z,16.30
2019-06-01T05:08:58.952Z,16.32
2019-06-01T05:11:29.027Z,16.41
2019-06-01T05:13:59.665Z,16.58
2019-06-01T05:16:29.888Z,16.58
2019-06-01T05:18:59.781Z,16.58
2019-06-01T05:21:29.819Z,16.74
2019-06-01T05:23:59.751Z,16.75
2019-06-01T05:26:30.278Z,16.77
2019-06-01T05:29:00.396Z,16.91
2019-06-01T05:31:30.221Z,17.02
2019-06-01T05:34:00.153Z,17.02
2019-06-01T05:36:30.182Z,16.97
2019-06-01T05:39:00.201Z,17.10
2019-06-01T05:41:30.535Z,17.10
2019-06-01T05:44:00.477Z,17.19
2019-06-01T05:46:30.608Z,16.96
2019-06-01T05:49:00.770Z,17.02
2019-06-01T05:51:30.885Z,16.96
2019-06-01T05:54:01.668Z,17.02
2019-06-01T05:56:31.598Z,17.02
2019-06-01T05:59:02.104Z,17.07
2019-06-01T06:01:33.136Z,17.08
2019-06-01T06:04:03.233Z,17.30
2019-06-01T06:06:33.276Z,17.30
2019-06-01T06:09:03.636Z,17.35
2019-06-01T06:11:33.630Z,17.39
2019-06-01T06:14:03.955Z,17.52
2019-06-01T06:16:34.022Z,17.63
2019-06-01T06:19:04.346Z,17.55
2019-06-01T06:21:34.301Z,17.84
2019-06-01T06:24:04.628Z,17.90
2019-06-01T06:26:37.146Z,17.98
2019-06-01T06:29:07.016Z,17.99
2019-06-01T06:31:37.451Z,17.99
2019-06-01T06:34:07.357Z,18.24
2019-06-01T06:36:37.334Z,18.25
2019-06-01T06:39:08.686Z,18.25
2019-06-01T06:41:39.151Z,18.45
2019-06-01T06:44:09.039Z,18.52
2019-06-01T06:46:39.132Z,18.52
2019-06-01T06:49:10.156Z,18.44
2019-06-01T06:51:42.427Z,18.68
2019-06-01T06:54:14.574Z,18.68
2019-06-01T06:56:45.032Z,18.87
2019-06-01T06:59:16.188Z,18.77
2019-06-01T07:01:47.148Z,18.77
2019-06-01T07:04:19.174Z,18.81
2019-06-01T07:06:49.774Z,18.77
2019-06-01T07:09:20.332Z,18.77
2019-06-01T07:11:50.365Z,18.91
2019-06-01T07:14:21.202Z,18.91
2019-06-01T07:16:51.008Z,19.07
2019-06-01T07:19:21.549Z,19.28
2019-06-01T07:21:53.008Z,19.28
2019-06-01T07:24:23.916Z,19.22
2019-06-01T07:26:53.884Z,19.48
2019-06-01T07:29:24.211Z,19.66
2019-06-01T07:31:54.496Z,19.61
2019-06-01T07:34:35.868Z,19.87
2019-06-01T07:36:56.255Z,20.09
2019-06-01T07:39:26.863Z,20.09
2019-06-01T07:41:57.333Z,20.26
2019-06-01T07:44:27.164Z,20.22
2019-06-01T07:46:57.155Z,20.22
2019-06-01T07:49:39.295Z,20.37
2019-06-01T07:52:13.199Z,20.45
2019-06-01T07:54:41.778Z,20.51
2019-06-01T07:57:11.751Z,20.51
2019-06-01T07:59:41.757Z,20.54
2019-06-01T08:02:30.814Z,20.54
2019-06-01T08:05:00.547Z,20.72
2019-06-01T08:07:31.295Z,20.95
2019-06-01T08:10:01.248Z,20.85
2019-06-01T08:12:31.752Z,20.85
2019-06-01T08:15:03.848Z,21.19
2019-06-01T08:17:33.780Z,21.19
2019-06-01T08:20:03.643Z,21.21
2019-06-01T08:22:33.442Z,21.21
2019-06-01T08:25:04.131Z,21.17
2019-06-01T08:27:34.164Z,21.17
2019-06-01T08:30:04.291Z,21.01
2019-06-01T08:32:35.177Z,21.07
2019-06-01T08:35:09.221Z,21.42
2019-06-01T08:37:37.733Z,21.55
2019-06-01T08:40:08.882Z,21.55
2019-06-01T08:42:38.947Z,21.47
2019-06-01T08:45:09.402Z,21.78
2019-06-01T08:47:39.401Z,21.78
2019-06-01T08:50:09.439Z,21.90
2019-06-01T08:52:39.429Z,21.89
2019-06-01T08:55:10.085Z,21.89
2019-06-01T08:57:39.913Z,22.34
2019-06-01T09:00:10.526Z,22.34
2019-06-01T09:02:41.893Z,22.13
2019-06-01T09:05:23.938Z,22.38
2019-06-01T09:07:43.747Z,22.13
2019-06-01T09:10:15.069Z,22.13
2019-06-01T09:12:45.433Z,22.71
2019-06-01T09:15:15.140Z,22.71
2019-06-01T09:17:48.226Z,22.77
2019-06-01T09:20:18.079Z,22.54
2019-06-01T09:22:48.254Z,22.74
2019-06-01T09:25:19.094Z,22.94
2019-06-01T09:27:50.710Z,23.02
2019-06-01T09:30:34.337Z,23.02
2019-06-01T09:33:04.221Z,22.92
2019-06-01T09:35:52.550Z,22.70
2019-06-01T09:38:06.576Z,22.70
2019-06-01T09:40:38.716Z,23.18
2019-06-01T09:43:09.082Z,23.36
2019-06-01T09:45:39.148Z,23.36
2019-06-01T09:48:08.871Z,23.39
2019-06-01T09:50:38.832Z,23.60
2019-06-01T09:53:08.550Z,22.82
2019-06-01T09:55:38.506Z,23.21
2019-06-01T09:58:09.980Z,23.09
2019-06-01T10:00:43.407Z,23.09
2019-06-01T10:03:12.146Z,22.95
2019-06-01T10:05:42.204Z,22.95
2019-06-01T10:08:12.214Z,23.20
2019-06-01T10:10:43.248Z,23.20
2019-06-01T10:13:13.523Z,23.42
2019-06-01T10:15:44.931Z,23.03
2019-06-01T10:18:15.492Z,23.70
2019-06-01T10:20:45.770Z,23.70
2019-06-01T10:23:15.885Z,23.57
2019-06-01T10:25:46.687Z,23.57
2019-06-01T10:28:17.755Z,23.62
2019-06-01T10:30:48.084Z,23.23
2019-06-01T10:33:18.450Z,23.65
2019-06-01T10:35:49.785Z,23.59
2019-06-01T10:38:21.989Z,23.59
2019-06-01T10:40:52.175Z,23.75
2019-06-01T10:43:25.157Z,23.75
2019-06-01T10:45:55.430Z,23.78
2019-06-01T10:48:26.014Z,23.97
2019-06-01T10:50:55.781Z,23.97
2019-06-01T10:53:26.152Z,23.84
2019-06-01T10:55:55.790Z,24.16
2019-06-01T10:58:25.614Z,24.16
2019-06-01T11:00:55.694Z,24.12
2019-06-01T11:03:28.279Z,24.17
2019-06-01T11:05:58.027Z,24.33
2019-06-01T11:08:28.172Z,24.33
2019-06-01T11:11:02.678Z,24.58
2019-06-01T11:13:33.121Z,24.50
2019-06-01T11:16:02.807Z,24.50
2019-06-01T11:18:33.196Z,24.24
2019-06-01T11:21:12.802Z,24.24
2019-06-01T11:23:46.540Z,24.44
2019-06-01T11:26:17.017Z,24.58
2019-06-01T11:28:47.683Z,24.57
2019-06-01T11:31:17.777Z,24.22
2019-06-01T11:33:47.500Z,24.84
2019-06-01T11:36:17.421Z,24.51
2019-06-01T11:38:47.304Z,24.80
2019-06-01T11:41:18.617Z,24.80
2019-06-01T11:43:48.640Z,24.63
2019-06-01T11:46:18.608Z,24.42
2019-06-01T11:48:48.699Z,24.42
2019-06-01T11:51:18.617Z,24.71
2019-06-01T11:53:49.754Z,25.09
2019-06-01T11:56:19.562Z,24.62
2019-06-01T11:58:52.485Z,24.62
2019-06-01T12:01:23.092Z,24.57
2019-06-01T12:03:53.539Z,24.43
2019-06-01T12:06:23.386Z,24.88
2019-06-01T12:08:54.040Z,24.88
2019-06-01T12:11:24.507Z,25.18
2019-06-01T12:13:54.461Z,25.32
2019-06-01T12:16:25.858Z,25.25
2019-06-01T12:18:55.752Z,25.13
2019-06-01T12:21:27.795Z,25.13
2019-06-01T12:23:57.826Z,25.49
2019-06-01T12:26:27.848Z,25.73
2019-06-01T12:28:58.404Z,25.37
2019-06-01T12:31:28.950Z,25.37
2019-06-01T12:33:59.056Z,25.51
2019-06-01T12:36:28.843Z,25.51
2019-06-01T12:38:58.635Z,25.57
2019-06-01T12:41:28.624Z,25.45
2019-06-01T12:44:15.202Z,25.31
2019-06-01T12:46:48.908Z,25.50
2019-06-01T12:49:18.841Z,26.07
2019-06-01T12:51:49.063Z,25.87
2019-06-01T12:54:19.634Z,25.69
2019-06-01T12:56:50.259Z,25.56
2019-06-01T12:59:21.137Z,25.35
2019-06-01T13:01:51.361Z,25.55
2019-06-01T13:04:22.681Z,25.79
2019-06-01T13:06:54.141Z,26.05
2019-06-01T13:09:24.712Z,26.05
2019-06-01T13:11:57.119Z,25.99
2019-06-01T13:14:27.144Z,26.30
2019-06-01T13:17:06.809Z,26.30
2019-06-01T13:19:28.668Z,26.28
2019-06-01T13:21:58.823Z,26.14
2019-06-01T13:24:30.315Z,26.39
2019-06-01T13:27:01.457Z,26.39
2019-06-01T13:29:31.473Z,26.55
2019-06-01T13:32:01.491Z,26.57
2019-06-01T13:34:34.050Z,26.51
2019-06-01T13:37:03.317Z,26.44
2019-06-01T13:39:33.334Z,26.66
2019-06-01T13:42:03.373Z,26.66
2019-06-01T13:44:33.220Z,26.61
2019-06-01T13:47:08.069Z,26.61
2019-06-01T13:49:38.364Z,26.63
2019-06-01T13:52:08.506Z,26.80
2019-06-01T13:54:40.200Z,26.98
2019-06-01T13:57:10.506Z,26.98
2019-06-01T13:59:40.466Z,26.88
2019-06-01T14:02:10.576Z,26.88
2019-06-01T14:04:40.902Z,26.85
2019-06-01T14:07:11.033Z,27.02
2019-06-01T14:09:41.056Z,27.19
2019-06-01T14:12:11.525Z,26.81
2019-06-01T14:14:41.396Z,26.92
2019-06-01T14:17:11.435Z,26.92
2019-06-01T14:19:41.560Z,27.03
2019-06-01T14:22:12.116Z,27.15
2019-06-01T14:24:44.104Z,27.03
2019-06-01T14:27:13.598Z,27.03
2019-06-01T14:29:44.204Z,27.23
2019-06-01T14:32:14.172Z,27.57
2019-06-01T14:34:44.277Z,27.57
2019-06-01T14:37:14.136Z,27.46
2019-06-01T14:39:44.345Z,27.46
2019-06-01T14:42:14.610Z,27.51
2019-06-01T14:44:47.697Z,27.29
2019-06-01T14:47:18.748Z,27.29
2019-06-01T14:49:49.466Z,27.57
2019-06-01T14:52:19.838Z,27.76
2019-06-01T14:54:49.778Z,27.91
2019-06-01T14:57:20.360Z,27.91
2019-06-01T14:59:51.901Z,27.93
2019-06-01T15:02:22.526Z,27.78
2019-06-01T15:04:54.320Z,27.77
2019-06-01T15:07:26.694Z,27.79
2019-06-01T15:09:56.436Z,27.77
2019-06-01T15:12:26.323Z,27.95
2019-06-01T15:14:57.506Z,27.95
2019-06-01T15:17:27.401Z,27.80
2019-06-01T15:19:58.302Z,27.90
2019-06-01T15:22:28.771Z,27.78
2019-06-01T15:24:59.308Z,27.84
2019-06-01T15:27:29.155Z,27.84
2019-06-01T15:29:59.446Z,28.01
2019-06-01T15:32:29.403Z,27.85
2019-06-01T15:35:00.086Z,27.74
2019-06-01T15:37:30.734Z,27.77
2019-06-01T15:40:00.711Z,28.12
2019-06-01T15:42:30.630Z,28.12
2019-06-01T15:45:01.501Z,28.06
2019-06-01T15:47:34.767Z,27.97
2019-06-01T15:50:07.671Z,27.97
2019-06-01T15:52:37.588Z,27.97
2019-06-01T15:55:07.534Z,27.86
2019-06-01T15:57:37.336Z,28.01
2019-06-01T16:00:07.738Z,27.75
2019-06-01T16:02:37.445Z,27.68
2019-06-01T16:05:09.076Z,27.68
2019-06-01T16:07:38.866Z,27.83
2019-06-01T16:10:08.979Z,27.64
2019-06-01T16:12:38.946Z,27.54
2019-06-01T16:15:10.548Z,27.62
2019-06-01T16:17:55.819Z,27.58
2019-06-01T16:20:26.047Z,27.33
2019-06-01T16:22:56.209Z,27.33
2019-06-01T16:25:26.432Z,27.19
2019-06-01T16:27:56.699Z,27.25
2019-06-01T16:30:26.779Z,27.05
2019-06-01T16:32:56.767Z,27.02
2019-06-01T16:35:27.667Z,27.05
2019-06-01T16:37:58.895Z,27.09
2019-06-01T16:40:30.206Z,27.01
2019-06-01T16:43:01.462Z,26.93
2019-06-01T16:45:32.893Z,26.80
2019-06-01T16:48:03.732Z,26.89
2019-06-01T16:50:34.229Z,26.76
2019-06-01T16:53:04.476Z,26.69
2019-06-01T16:55:34.298Z,26.55
2019-06-01T16:58:06.556Z,26.61
2019-06-01T17:00:37.882Z,26.30
2019-06-01T17:03:13.188Z,26.69
2019-06-01T17:06:09.914Z,26.63
2019-06-01T17:08:42.003Z,26.52
2019-06-01T17:11:12.114Z,26.52
2019-06-01T17:13:42.450Z,26.53
2019-06-01T17:16:13.966Z,26.53
2019-06-01T17:18:44.236Z,26.33
2019-06-01T17:21:14.085Z,26.33
2019-06-01T17:23:45.152Z,26.49
2019-06-01T17:26:15.038Z,26.11
2019-06-01T17:28:45.220Z,26.11
2019-06-01T17:31:15.888Z,26.39
2019-06-01T17:33:45.771Z,26.39
2019-06-01T17:36:16.554Z,26.12
2019-06-01T17:38:46.318Z,26.12
2019-06-01T17:41:16.472Z,26.14
2019-06-01T17:43:47.447Z,26.03
2019-06-01T17:46:17.680Z,26.07
2019-06-01T17:48:47.479Z,25.89
2019-06-01T17:51:17.725Z,25.73
2019-06-01T17:53:54.498Z,25.73
2019-06-01T17:56:24.727Z,25.74
2019-06-01T17:58:55.201Z,25.67
2019-06-01T18:01:25.060Z,25.67
2019-06-01T18:03:56.511Z,25.70
2019-06-01T18:06:26.727Z,25.79
2019-06-01T18:08:57.065Z,25.54
2019-06-01T18:11:30.006Z,25.54
2019-06-01T18:14:02.237Z,25.60
2019-06-01T18:16:35.706Z,25.52
2019-06-01T18:19:06.449Z,25.52
2019-06-01T18:21:36.674Z,25.48
2019-06-01T18:24:08.430Z,25.43
2019-06-01T18:26:38.505Z,25.30
2019-06-01T18:29:08.600Z,25.30
2019-06-01T18:31:38.882Z,25.25
2019-06-01T18:34:09.691Z,25.07
2019-06-01T18:37:24.207Z,25.07
2019-06-01T18:39:55.706Z,25.01
2019-06-01T18:42:26.644Z,25.01
2019-06-01T18:44:56.411Z,24.86
2019-06-01T18:47:32.459Z,24.72
2019-06-01T18:50:02.596Z,24.58
2019-06-01T18:52:39.814Z,24.58
2019-06-01T18:55:10.597Z,24.58
2019-06-01T18:57:42.050Z,24.46
2019-06-01T19:00:13.850Z,24.36
2019-06-01T19:02:43.625Z,24.36
2019-06-01T19:05:13.392Z,24.29
2019-06-01T19:07:44.114Z,24.22
2019-06-01T19:10:18.351Z,24.05
2019-06-01T19:12:48.448Z,23.99
2019-06-01T19:15:26.739Z,23.91
2019-06-01T19:17:50.937Z,23.91
2019-06-01T19:20:20.776Z,23.81
2019-06-01T19:22:52.113Z,23.81
2019-06-01T19:25:22.194Z,23.58
2019-06-01T19:27:52.726Z,23.58
2019-06-01T19:30:42.369Z,23.42
2019-06-01T19:33:19.244Z,23.37
2019-06-01T19:35:47.777Z,23.19
2019-06-01T19:38:18.297Z,22.95
2019-06-01T19:40:48.375Z,22.91
2019-06-01T19:43:18.406Z,22.91
2019-06-01T19:45:48.469Z,22.76
2019-06-01T19:48:19.265Z,22.65
2019-06-01T19:50:49.603Z,22.47
2019-06-01T19:53:19.541Z,22.38
2019-06-01T19:55:49.476Z,22.38
2019-06-01T19:58:19.836Z,22.24
2019-06-01T20:00:50.114Z,22.14
2019-06-01T20:03:22.129Z,22.09
2019-06-01T20:05:51.599Z,22.09
2019-06-01T20:08:22.651Z,21.95
2019-06-01T20:10:52.938Z,21.95
2019-06-01T20:13:24.574Z,21.86
2019-06-01T20:15:55.856Z,21.81
2019-06-01T20:18:26.942Z,21.67
2019-06-01T20:20:58.695Z,21.61
2019-06-01T20:23:29.126Z,21.61
2019-06-01T20:26:01.650Z,21.57
2019-06-01T20:28:34.547Z,21.47
2019-06-01T20:31:07.247Z,21.47
2019-06-01T20:33:37.123Z,21.31
2019-06-01T20:36:11.968Z,21.26
2019-06-01T20:38:41.843Z,21.26
2019-06-01T20:41:12.783Z,21.19
2019-06-01T20:43:43.824Z,21.10
2019-06-01T20:46:14.568Z,21.07
2019-06-01T20:48:44.516Z,21.01
2019-06-01T20:51:14.716Z,20.95
2019-06-01T20:53:44.826Z,20.92
2019-06-01T20:56:15.336Z,20.90
2019-06-01T20:58:45.201Z,20.83
2019-06-01T21:01:17.563Z,20.71
2019-06-01T21:03:47.587Z,20.73
2019-06-01T21:06:22.485Z,20.65
2019-06-01T21:08:52.846Z,20.65
2019-06-01T21:11:24.415Z,20.62
2019-06-01T21:13:54.567Z,20.57
2019-06-01T21:16:24.878Z,20.48
2019-06-01T21:18:55.025Z,20.47
2019-06-01T21:21:25.375Z,20.42
2019-06-01T21:23:55.385Z,20.42
2019-06-01T21:26:25.438Z,20.38
2019-06-01T21:28:55.234Z,20.38
2019-06-01T21:31:28.150Z,20.38
2019-06-01T21:33:58.117Z,20.32
2019-06-01T21:36:28.103Z,20.30
2019-06-01T21:38:58.401Z,20.26
2019-06-01T21:41:28.767Z,20.26
2019-06-01T21:43:59.228Z,20.24
2019-06-01T21:46:29.333Z,20.18
2019-06-01T21:48:59.558Z,20.11
2019-06-01T21:51:29.471Z,20.11
2019-06-01T21:53:59.933Z,20.09
2019-06-01T21:56:30.890Z,20.09
2019-06-01T21:59:06.471Z,20.07
2019-06-01T22:01:36.398Z,20.04
2019-06-01T22:04:06.778Z,20.01
2019-06-01T22:06:36.938Z,20.01
2019-06-01T22:09:08.409Z,19.99
2019-06-01T22:11:38.437Z,19.98
2019-06-01T22:14:08.274Z,19.93
2019-06-01T22:16:38.338Z,19.98
2019-06-01T22:19:09.172Z,19.99
2019-06-01T22:21:40.261Z,19.98
2019-06-01T22:24:10.222Z,19.94
2019-06-01T22:26:40.083Z,19.99
2019-06-01T22:29:10.269Z,19.99
2019-06-01T22:31:41.360Z,19.99
2019-06-01T22:34:12.350Z,19.94
2019-06-01T22:36:42.483Z,19.95
2019-06-01T22:39:14.666Z,19.95
2019-06-01T22:41:44.510Z,19.85
2019-06-01T22:44:17.154Z,19.87
2019-06-01T22:46:47.601Z,19.87
2019-06-01T22:49:17.906Z,19.88
2019-06-01T22:51:49.715Z,19.88
2019-06-01T22:54:23.546Z,19.83
2019-06-01T22:56:55.200Z,19.87
2019-06-01T22:59:26.660Z,19.84
2019-06-01T23:02:00.439Z,19.81
2019-06-01T23:04:33.599Z,19.83
2019-06-01T23:07:04.376Z,19.83
2019-06-01T23:09:35.567Z,19.83
2019-06-01T23:12:05.673Z,19.84
2019-06-01T23:14:35.625Z,19.80
2019-06-01T23:17:05.710Z,19.82
2019-06-01T23:19:35.646Z,19.73
2019-06-01T23:22:06.466Z,19.73
2019-06-01T23:24:36.538Z,19.71
2019-06-01T23:27:07.028Z,19.71
2019-06-01T23:29:37.757Z,19.65
2019-06-01T23:32:11.011Z,19.68
2019-06-01T23:34:44.359Z,19.65
2019-06-01T23:37:14.493Z,19.65
2019-06-01T23:39:44.870Z,19.57
2019-06-01T23:42:14.858Z,19.57
2019-06-01T23:44:44.980Z,19.47
2019-06-01T23:47:15.443Z,19.45
2019-06-01T23:49:45.655Z,19.45
2019-06-01T23:52:15.973Z,19.41
2019-06-01T23:54:46.223Z,19.37
2019-06-01T23:57:18.406Z,19.36
2019-06-01T23:59:48.480Z,19.36
